sensor_id;sensor_type;location;lat;lon;timestamp;temperature;humidity
10472;DHT22;5283;48.876;8.962;2023-01-29T00:01:53;-0.60;99.90
10472;DHT22;5283;48.876;8.962;2023-01-29T00:04:20;-0.60;99.90
10472;DHT22;5283;48.876;8.962;2023-01-29T00:06:47;-0.60;99.90
10472;DHT22;5283;48.876;8.962;2023-01-29T00:09:14;-0.60;99.90
10472;DHT22;5283;48.876;8.962;2023-01-29T00:11:41;-0.60;99.90
10472;DHT22;5283;48.876;8.962;2023-01-29T00:14:08;-0.60;99.90
10472;DHT22;5283;48.876;8.962;2023-01-29T00:16:34;-0.50;99.90
10472;DHT22;5283;48.876;8.962;2023-01-29T00:19:02;-0.50;99.90
10472;DHT22;5283;48.876;8.962;2023-01-29T00:21:29;-0.60;99.90
10472;DHT22;5283;48.876;8.962;2023-01-29T00:23:57;-0.60;99.90
10472;DHT22;5283;48.876;8.962;2023-01-29T00:26:24;-0.70;99.90
10472;DHT22;5283;48.876;8.962;2023-01-29T00:28:51;-0.70;99.90
10472;DHT22;5283;48.876;8.962;2023-01-29T00:31:23;-0.60;99.90
10472;DHT22;5283;48.876;8.962;2023-01-29T00:33:50;-0.50;99.90
10472;DHT22;5283;48.876;8.962;2023-01-29T00:36:19;-0.50;99.90
10472;DHT22;5283;48.876;8.962;2023-01-29T00:38:46;-0.50;99.90
10472;DHT22;5283;48.876;8.962;2023-01-29T00:41:20;-0.60;99.90
10472;DHT22;5283;48.876;8.962;2023-01-29T00:44:06;-0.60;99.90
10472;DHT22;5283;48.876;8.962;2023-01-29T00:46:51;-0.60;99.90
10472;DHT22;5283;48.876;8.962;2023-01-29T00:49:18;-0.70;99.90
10472;DHT22;5283;48.876;8.962;2023-01-29T00:51:45;-0.70;99.90
10472;DHT22;5283;48.876;8.962;2023-01-29T00:54:35;-0.70;99.90
10472;DHT22;5283;48.876;8.962;2023-01-29T00:57:03;-0.70;99.90
10472;DHT22;5283;48.876;8.962;2023-01-29T00:59:29;-0.60;99.90
10472;DHT22;5283;48.876;8.962;2023-01-29T01:01:56;-0.60;99.90
10472;DHT22;5283;48.876;8.962;2023-01-29T01:04:41;-0.60;99.90
10472;DHT22;5283;48.876;8.962;2023-01-29T01:07:08;-0.60;99.90
10472;DHT22;5283;48.876;8.962;2023-01-29T01:09:35;-0.60;99.90
10472;DHT22;5283;48.876;8.962;2023-01-29T01:12:21;-0.60;99.90
10472;DHT22;5283;48.876;8.962;2023-01-29T01:14:48;-0.60;99.90
10472;DHT22;5283;48.876;8.962;2023-01-29T01:17:15;-0.70;99.90
10472;DHT22;5283;48.876;8.962;2023-01-29T01:19:41;-0.70;99.90
10472;DHT22;5283;48.876;8.962;2023-01-29T01:22:08;-0.80;99.90
10472;DHT22;5283;48.876;8.962;2023-01-29T01:24:35;-0.80;99.90
10472;DHT22;5283;48.876;8.962;2023-01-29T01:27:02;-0.90;99.90
10472;DHT22;5283;48.876;8.962;2023-01-29T01:29:28;-0.90;99.90
10472;DHT22;5283;48.876;8.962;2023-01-29T01:31:55;-1.00;99.90
10472;DHT22;5283;48.876;8.962;2023-01-29T01:34:22;-1.00;99.90
10472;DHT22;5283;48.876;8.962;2023-01-29T01:36:49;-1.00;99.90
10472;DHT22;5283;48.876;8.962;2023-01-29T01:39:16;-1.00;99.90
10472;DHT22;5283;48.876;8.962;2023-01-29T01:41:42;-1.00;99.90
10472;DHT22;5283;48.876;8.962;2023-01-29T01:47:14;-1.00;99.90
10472;DHT22;5283;48.876;8.962;2023-01-29T01:49:42;-1.00;99.90
10472;DHT22;5283;48.876;8.962;2023-01-29T01:52:10;-1.00;99.90
10472;DHT22;5283;48.876;8.962;2023-01-29T01:54:38;-1.00;99.90
10472;DHT22;5283;48.876;8.962;2023-01-29T01:57:09;-1.00;99.90
10472;DHT22;5283;48.876;8.962;2023-01-29T01:59:45;-1.00;99.90
10472;DHT22;5283;48.876;8.962;2023-01-29T02:02:14;-0.90;99.90
10472;DHT22;5283;48.876;8.962;2023-01-29T02:05:01;-1.00;99.90
10472;DHT22;5283;48.876;8.962;2023-01-29T02:07:48;-1.00;99.90
10472;DHT22;5283;48.876;8.962;2023-01-29T02:10:47;-1.00;99.90
10472;DHT22;5283;48.876;8.962;2023-01-29T02:13:15;-1.10;99.90
10472;DHT22;5283;48.876;8.962;2023-01-29T02:15:44;-1.10;99.90
10472;DHT22;5283;48.876;8.962;2023-01-29T02:18:15;-1.10;99.90
10472;DHT22;5283;48.876;8.962;2023-01-29T02:23:48;-1.10;99.90
10472;DHT22;5283;48.876;8.962;2023-01-29T02:37:08;-1.10;99.90
10472;DHT22;5283;48.876;8.962;2023-01-29T02:40:30;-1.10;99.90
10472;DHT22;5283;48.876;8.962;2023-01-29T02:45:44;-1.20;99.90
10472;DHT22;5283;48.876;8.962;2023-01-29T02:48:17;-1.20;99.90
10472;DHT22;5283;48.876;8.962;2023-01-29T02:50:55;-1.30;99.90
10472;DHT22;5283;48.876;8.962;2023-01-29T02:53:28;-1.30;99.90
10472;DHT22;5283;48.876;8.962;2023-01-29T02:56:18;-1.40;99.90
10472;DHT22;5283;48.876;8.962;2023-01-29T02:58:51;-1.40;99.90
10472;DHT22;5283;48.876;8.962;2023-01-29T03:02:04;-1.50;99.90
10472;DHT22;5283;48.876;8.962;2023-01-29T03:04:15;-1.50;99.90
10472;DHT22;5283;48.876;8.962;2023-01-29T03:06:50;-1.50;99.90
10472;DHT22;5283;48.876;8.962;2023-01-29T03:09:29;-1.50;99.90
10472;DHT22;5283;48.876;8.962;2023-01-29T03:12:06;-1.50;99.90
10472;DHT22;5283;48.876;8.962;2023-01-29T03:14:47;-1.50;99.90
10472;DHT22;5283;48.876;8.962;2023-01-29T03:17:54;-1.50;99.90
10472;DHT22;5283;48.876;8.962;2023-01-29T03:20:28;-1.50;99.90
10472;DHT22;5283;48.876;8.962;2023-01-29T03:23:04;-1.50;99.90
10472;DHT22;5283;48.876;8.962;2023-01-29T03:25:33;-1.50;99.90
10472;DHT22;5283;48.876;8.962;2023-01-29T03:28:20;-1.50;99.90
10472;DHT22;5283;48.876;8.962;2023-01-29T03:31:09;-1.50;99.90
10472;DHT22;5283;48.876;8.962;2023-01-29T03:34:09;-1.50;99.90
10472;DHT22;5283;48.876;8.962;2023-01-29T03:36:56;-1.50;99.90
10472;DHT22;5283;48.876;8.962;2023-01-29T03:39:25;-1.50;99.90
10472;DHT22;5283;48.876;8.962;2023-01-29T03:42:00;-1.40;99.90
10472;DHT22;5283;48.876;8.962;2023-01-29T03:48:04;-1.50;99.90
10472;DHT22;5283;48.876;8.962;2023-01-29T03:50:47;-1.50;99.90
10472;DHT22;5283;48.876;8.962;2023-01-29T03:53:26;-1.50;99.90
10472;DHT22;5283;48.876;8.962;2023-01-29T03:56:04;-1.50;99.90
10472;DHT22;5283;48.876;8.962;2023-01-29T03:58:44;-1.50;99.90
10472;DHT22;5283;48.876;8.962;2023-01-29T04:04:22;-1.60;99.90
10472;DHT22;5283;48.876;8.962;2023-01-29T04:06:51;-1.60;99.90
10472;DHT22;5283;48.876;8.962;2023-01-29T04:09:35;-1.60;99.90
10472;DHT22;5283;48.876;8.962;2023-01-29T04:12:07;-1.60;99.90
10472;DHT22;5283;48.876;8.962;2023-01-29T04:14:35;-1.60;99.90
10472;DHT22;5283;48.876;8.962;2023-01-29T04:17:15;-1.60;99.90
10472;DHT22;5283;48.876;8.962;2023-01-29T04:19:43;-1.60;99.90
10472;DHT22;5283;48.876;8.962;2023-01-29T04:22:18;-1.60;99.90
10472;DHT22;5283;48.876;8.962;2023-01-29T04:24:47;-1.60;99.90
10472;DHT22;5283;48.876;8.962;2023-01-29T04:30:25;-1.60;99.90
10472;DHT22;5283;48.876;8.962;2023-01-29T04:33:05;-1.60;99.90
10472;DHT22;5283;48.876;8.962;2023-01-29T04:36:12;-1.60;99.90
10472;DHT22;5283;48.876;8.962;2023-01-29T04:39:02;-1.60;99.90
10472;DHT22;5283;48.876;8.962;2023-01-29T04:41:49;-1.60;99.90
10472;DHT22;5283;48.876;8.962;2023-01-29T04:47:04;-1.50;99.90
10472;DHT22;5283;48.876;8.962;2023-01-29T04:49:51;-1.40;99.90
10472;DHT22;5283;48.876;8.962;2023-01-29T04:52:23;-1.40;99.90
10472;DHT22;5283;48.876;8.962;2023-01-29T05:00:18;-1.40;99.90
10472;DHT22;5283;48.876;8.962;2023-01-29T05:02:46;-1.40;99.90
10472;DHT22;5283;48.876;8.962;2023-01-29T05:05:16;-1.50;99.90
10472;DHT22;5283;48.876;8.962;2023-01-29T05:07:45;-1.50;99.90
10472;DHT22;5283;48.876;8.962;2023-01-29T05:10:14;-1.50;99.90
10472;DHT22;5283;48.876;8.962;2023-01-29T05:12:45;-1.40;99.90
10472;DHT22;5283;48.876;8.962;2023-01-29T05:15:18;-1.50;99.90
10472;DHT22;5283;48.876;8.962;2023-01-29T05:17:45;-1.40;99.90
10472;DHT22;5283;48.876;8.962;2023-01-29T05:20:12;-1.40;99.90
10472;DHT22;5283;48.876;8.962;2023-01-29T05:22:40;-1.40;99.90
10472;DHT22;5283;48.876;8.962;2023-01-29T05:27:48;-1.40;99.90
10472;DHT22;5283;48.876;8.962;2023-01-29T05:30:33;-1.40;99.90
10472;DHT22;5283;48.876;8.962;2023-01-29T05:33:00;-1.30;99.90
10472;DHT22;5283;48.876;8.962;2023-01-29T05:35:27;-1.30;99.90
10472;DHT22;5283;48.876;8.962;2023-01-29T05:37:55;-1.30;99.90
10472;DHT22;5283;48.876;8.962;2023-01-29T05:40:23;-1.40;99.90
10472;DHT22;5283;48.876;8.962;2023-01-29T05:42:50;-1.40;99.90
10472;DHT22;5283;48.876;8.962;2023-01-29T05:45:17;-1.40;99.90
10472;DHT22;5283;48.876;8.962;2023-01-29T05:47:45;-1.40;99.90
10472;DHT22;5283;48.876;8.962;2023-01-29T05:50:12;-1.40;99.90
10472;DHT22;5283;48.876;8.962;2023-01-29T05:52:40;-1.50;99.90
10472;DHT22;5283;48.876;8.962;2023-01-29T05:55:08;-1.50;99.90
10472;DHT22;5283;48.876;8.962;2023-01-29T05:57:35;-1.50;99.90
10472;DHT22;5283;48.876;8.962;2023-01-29T06:00:03;-1.50;99.90
10472;DHT22;5283;48.876;8.962;2023-01-29T06:02:30;-1.50;99.90
10472;DHT22;5283;48.876;8.962;2023-01-29T06:04:57;-1.50;99.90
10472;DHT22;5283;48.876;8.962;2023-01-29T06:07:23;-1.50;99.90
10472;DHT22;5283;48.876;8.962;2023-01-29T06:09:50;-1.50;99.90
10472;DHT22;5283;48.876;8.962;2023-01-29T06:12:17;-1.50;99.90
10472;DHT22;5283;48.876;8.962;2023-01-29T06:14:43;-1.50;99.90
10472;DHT22;5283;48.876;8.962;2023-01-29T06:17:10;-1.50;99.90
10472;DHT22;5283;48.876;8.962;2023-01-29T06:19:37;-1.50;99.90
10472;DHT22;5283;48.876;8.962;2023-01-29T06:22:04;-1.50;99.90
10472;DHT22;5283;48.876;8.962;2023-01-29T06:24:31;-1.60;99.90
10472;DHT22;5283;48.876;8.962;2023-01-29T06:26:58;-1.60;99.90
10472;DHT22;5283;48.876;8.962;2023-01-29T06:29:25;-1.60;99.90
10472;DHT22;5283;48.876;8.962;2023-01-29T06:31:51;-1.60;99.90
10472;DHT22;5283;48.876;8.962;2023-01-29T06:34:18;-1.60;99.90
10472;DHT22;5283;48.876;8.962;2023-01-29T06:36:45;-1.50;99.90
10472;DHT22;5283;48.876;8.962;2023-01-29T06:39:12;-1.50;99.90
10472;DHT22;5283;48.876;8.962;2023-01-29T06:41:38;-1.60;99.90
10472;DHT22;5283;48.876;8.962;2023-01-29T06:44:05;-1.60;99.90
10472;DHT22;5283;48.876;8.962;2023-01-29T06:46:32;-1.60;99.90
10472;DHT22;5283;48.876;8.962;2023-01-29T06:48:58;-1.60;99.90
10472;DHT22;5283;48.876;8.962;2023-01-29T06:51:28;-1.60;99.90
10472;DHT22;5283;48.876;8.962;2023-01-29T06:53:55;-1.60;99.90
10472;DHT22;5283;48.876;8.962;2023-01-29T06:56:22;-1.60;99.90
10472;DHT22;5283;48.876;8.962;2023-01-29T06:58:49;-1.60;99.90
10472;DHT22;5283;48.876;8.962;2023-01-29T07:01:16;-1.60;99.90
10472;DHT22;5283;48.876;8.962;2023-01-29T07:03:59;-1.60;99.90
10472;DHT22;5283;48.876;8.962;2023-01-29T07:06:27;-1.60;99.90
10472;DHT22;5283;48.876;8.962;2023-01-29T07:08:55;-1.60;99.90
10472;DHT22;5283;48.876;8.962;2023-01-29T07:11:22;-1.60;99.90
10472;DHT22;5283;48.876;8.962;2023-01-29T07:13:49;-1.60;99.90
10472;DHT22;5283;48.876;8.962;2023-01-29T07:16:15;-1.50;99.90
10472;DHT22;5283;48.876;8.962;2023-01-29T07:18:43;-1.40;99.90
10472;DHT22;5283;48.876;8.962;2023-01-29T07:21:10;-1.40;99.90
10472;DHT22;5283;48.876;8.962;2023-01-29T07:23:36;-1.40;99.90
10472;DHT22;5283;48.876;8.962;2023-01-29T07:26:04;-1.30;99.90
10472;DHT22;5283;48.876;8.962;2023-01-29T07:28:35;-1.20;99.90
10472;DHT22;5283;48.876;8.962;2023-01-29T07:31:02;-1.10;99.90
10472;DHT22;5283;48.876;8.962;2023-01-29T07:33:29;-1.10;99.90
10472;DHT22;5283;48.876;8.962;2023-01-29T07:35:56;-1.10;99.90
10472;DHT22;5283;48.876;8.962;2023-01-29T07:38:22;-1.00;99.90
10472;DHT22;5283;48.876;8.962;2023-01-29T07:40:51;-0.90;99.90
10472;DHT22;5283;48.876;8.962;2023-01-29T07:43:18;-0.90;99.90
10472;DHT22;5283;48.876;8.962;2023-01-29T07:45:44;-0.80;99.90
10472;DHT22;5283;48.876;8.962;2023-01-29T07:48:11;-0.80;99.90
10472;DHT22;5283;48.876;8.962;2023-01-29T07:50:39;-0.70;99.90
10472;DHT22;5283;48.876;8.962;2023-01-29T07:53:06;-0.70;99.90
10472;DHT22;5283;48.876;8.962;2023-01-29T07:55:33;-0.60;99.90
10472;DHT22;5283;48.876;8.962;2023-01-29T07:58:02;-0.50;99.90
10472;DHT22;5283;48.876;8.962;2023-01-29T08:00:30;-0.50;99.90
10472;DHT22;5283;48.876;8.962;2023-01-29T08:03:02;-0.40;99.90
10472;DHT22;5283;48.876;8.962;2023-01-29T08:05:29;-0.40;99.90
10472;DHT22;5283;48.876;8.962;2023-01-29T08:07:56;-0.40;99.90
10472;DHT22;5283;48.876;8.962;2023-01-29T08:10:32;-0.40;99.90
10472;DHT22;5283;48.876;8.962;2023-01-29T08:13:00;-0.40;99.90
10472;DHT22;5283;48.876;8.962;2023-01-29T08:15:27;-0.40;99.90
10472;DHT22;5283;48.876;8.962;2023-01-29T08:17:54;-0.40;99.90
10472;DHT22;5283;48.876;8.962;2023-01-29T08:20:23;-0.40;99.90
10472;DHT22;5283;48.876;8.962;2023-01-29T08:22:58;-0.50;99.90
10472;DHT22;5283;48.876;8.962;2023-01-29T08:25:26;-0.40;99.90
10472;DHT22;5283;48.876;8.962;2023-01-29T08:27:53;-0.50;99.90
10472;DHT22;5283;48.876;8.962;2023-01-29T08:30:20;-0.30;99.90
10472;DHT22;5283;48.876;8.962;2023-01-29T08:32:46;-0.20;99.90
10472;DHT22;5283;48.876;8.962;2023-01-29T08:35:13;-0.10;99.90
10472;DHT22;5283;48.876;8.962;2023-01-29T08:37:40;-0.10;99.90
10472;DHT22;5283;48.876;8.962;2023-01-29T08:40:07;-0.10;99.90
10472;DHT22;5283;48.876;8.962;2023-01-29T08:42:36;-0.10;99.90
10472;DHT22;5283;48.876;8.962;2023-01-29T08:45:03;-0.10;99.90
10472;DHT22;5283;48.876;8.962;2023-01-29T08:47:30;0.00;99.90
10472;DHT22;5283;48.876;8.962;2023-01-29T08:49:56;0.10;99.90
10472;DHT22;5283;48.876;8.962;2023-01-29T08:52:23;0.20;99.90
10472;DHT22;5283;48.876;8.962;2023-01-29T08:54:50;0.20;99.90
10472;DHT22;5283;48.876;8.962;2023-01-29T08:57:16;0.20;99.90
10472;DHT22;5283;48.876;8.962;2023-01-29T08:59:43;0.30;99.90
10472;DHT22;5283;48.876;8.962;2023-01-29T09:02:10;0.30;99.90
10472;DHT22;5283;48.876;8.962;2023-01-29T09:04:37;0.30;99.90
10472;DHT22;5283;48.876;8.962;2023-01-29T09:07:04;0.40;99.90
10472;DHT22;5283;48.876;8.962;2023-01-29T09:09:30;0.50;99.90
10472;DHT22;5283;48.876;8.962;2023-01-29T09:11:57;0.40;99.90
10472;DHT22;5283;48.876;8.962;2023-01-29T09:14:24;0.50;99.90
10472;DHT22;5283;48.876;8.962;2023-01-29T09:16:50;0.70;99.90
10472;DHT22;5283;48.876;8.962;2023-01-29T09:19:17;0.90;99.90
10472;DHT22;5283;48.876;8.962;2023-01-29T09:21:44;1.00;99.90
10472;DHT22;5283;48.876;8.962;2023-01-29T09:24:11;1.00;99.90
10472;DHT22;5283;48.876;8.962;2023-01-29T09:26:38;0.80;99.90
10472;DHT22;5283;48.876;8.962;2023-01-29T09:29:05;0.70;99.90
10472;DHT22;5283;48.876;8.962;2023-01-29T09:31:32;0.90;99.90
10472;DHT22;5283;48.876;8.962;2023-01-29T09:33:59;1.10;99.90
10472;DHT22;5283;48.876;8.962;2023-01-29T09:36:26;1.30;99.90
10472;DHT22;5283;48.876;8.962;2023-01-29T09:38:52;1.50;99.90
10472;DHT22;5283;48.876;8.962;2023-01-29T09:44:16;1.60;99.90
10472;DHT22;5283;48.876;8.962;2023-01-29T09:46:46;1.80;99.90
10472;DHT22;5283;48.876;8.962;2023-01-29T09:49:22;1.90;99.90
10472;DHT22;5283;48.876;8.962;2023-01-29T09:51:54;2.10;99.90
10472;DHT22;5283;48.876;8.962;2023-01-29T09:54:35;2.20;99.90
10472;DHT22;5283;48.876;8.962;2023-01-29T09:57:09;2.40;99.90
10472;DHT22;5283;48.876;8.962;2023-01-29T09:59:40;2.50;99.90
10472;DHT22;5283;48.876;8.962;2023-01-29T10:02:40;2.80;99.90
10472;DHT22;5283;48.876;8.962;2023-01-29T10:10:50;2.70;99.90
10472;DHT22;5283;48.876;8.962;2023-01-29T10:13:43;2.80;99.90
10472;DHT22;5283;48.876;8.962;2023-01-29T10:16:38;2.50;99.90
10472;DHT22;5283;48.876;8.962;2023-01-29T10:20:31;2.30;99.90
10472;DHT22;5283;48.876;8.962;2023-01-29T10:22:44;2.10;99.90
10472;DHT22;5283;48.876;8.962;2023-01-29T10:25:16;1.80;99.90
10472;DHT22;5283;48.876;8.962;2023-01-29T10:27:51;1.30;99.90
10472;DHT22;5283;48.876;8.962;2023-01-29T10:30:29;1.40;99.90
10472;DHT22;5283;48.876;8.962;2023-01-29T10:33:01;1.70;99.90
10472;DHT22;5283;48.876;8.962;2023-01-29T10:35:39;2.10;99.90
10472;DHT22;5283;48.876;8.962;2023-01-29T10:38:19;2.30;99.90
10472;DHT22;5283;48.876;8.962;2023-01-29T10:49:07;3.10;99.90
10472;DHT22;5283;48.876;8.962;2023-01-29T10:51:50;2.90;99.90
10472;DHT22;5283;48.876;8.962;2023-01-29T10:54:48;2.70;99.90
10472;DHT22;5283;48.876;8.962;2023-01-29T11:00:24;2.80;99.90
10472;DHT22;5283;48.876;8.962;2023-01-29T11:02:51;3.10;99.90
10472;DHT22;5283;48.876;8.962;2023-01-29T11:11:45;3.00;99.90
10472;DHT22;5283;48.876;8.962;2023-01-29T11:14:21;3.30;99.90
10472;DHT22;5283;48.876;8.962;2023-01-29T11:16:50;3.00;99.90
10472;DHT22;5283;48.876;8.962;2023-01-29T11:19:17;2.50;99.90
10472;DHT22;5283;48.876;8.962;2023-01-29T11:21:58;2.10;99.90
10472;DHT22;5283;48.876;8.962;2023-01-29T11:24:26;1.80;99.90
10472;DHT22;5283;48.876;8.962;2023-01-29T11:26:58;1.70;99.90
10472;DHT22;5283;48.876;8.962;2023-01-29T11:29:42;1.60;99.90
10472;DHT22;5283;48.876;8.962;2023-01-29T11:32:35;1.70;99.90
10472;DHT22;5283;48.876;8.962;2023-01-29T11:35:16;1.90;99.90
10472;DHT22;5283;48.876;8.962;2023-01-29T11:37:45;2.10;99.90
10472;DHT22;5283;48.876;8.962;2023-01-29T11:42:45;2.60;99.90
10472;DHT22;5283;48.876;8.962;2023-01-29T11:47:49;2.50;99.90
10472;DHT22;5283;48.876;8.962;2023-01-29T11:50:28;2.10;99.90
10472;DHT22;5283;48.876;8.962;2023-01-29T11:52:58;2.10;99.90
10472;DHT22;5283;48.876;8.962;2023-01-29T11:55:30;1.90;99.90
10472;DHT22;5283;48.876;8.962;2023-01-29T11:58:17;1.80;99.90
10472;DHT22;5283;48.876;8.962;2023-01-29T12:00:48;1.70;99.90
10472;DHT22;5283;48.876;8.962;2023-01-29T12:03:21;1.60;99.90
10472;DHT22;5283;48.876;8.962;2023-01-29T12:06:07;1.70;99.90
10472;DHT22;5283;48.876;8.962;2023-01-29T12:08:38;1.70;99.90
10472;DHT22;5283;48.876;8.962;2023-01-29T12:11:30;1.80;99.90
10472;DHT22;5283;48.876;8.962;2023-01-29T12:14:05;1.80;99.90
10472;DHT22;5283;48.876;8.962;2023-01-29T12:16:57;1.90;99.90
10472;DHT22;5283;48.876;8.962;2023-01-29T12:19:34;2.00;99.90
10472;DHT22;5283;48.876;8.962;2023-01-29T12:24:59;2.40;99.90
10472;DHT22;5283;48.876;8.962;2023-01-29T12:27:31;2.50;99.90
10472;DHT22;5283;48.876;8.962;2023-01-29T12:30:03;2.40;99.90
10472;DHT22;5283;48.876;8.962;2023-01-29T12:32:42;2.50;99.90
10472;DHT22;5283;48.876;8.962;2023-01-29T12:35:29;2.40;99.90
10472;DHT22;5283;48.876;8.962;2023-01-29T12:38:09;2.30;99.90
10472;DHT22;5283;48.876;8.962;2023-01-29T12:43:17;2.40;99.90
10472;DHT22;5283;48.876;8.962;2023-01-29T12:45:49;2.60;99.90
10472;DHT22;5283;48.876;8.962;2023-01-29T12:48:26;2.40;99.90
10472;DHT22;5283;48.876;8.962;2023-01-29T12:50:54;2.20;99.90
10472;DHT22;5283;48.876;8.962;2023-01-29T12:53:34;2.30;99.90
10472;DHT22;5283;48.876;8.962;2023-01-29T12:56:11;2.30;99.90
10472;DHT22;5283;48.876;8.962;2023-01-29T12:58:48;2.50;99.90
10472;DHT22;5283;48.876;8.962;2023-01-29T13:01:32;2.40;99.90
10472;DHT22;5283;48.876;8.962;2023-01-29T13:06:30;2.40;99.90
10472;DHT22;5283;48.876;8.962;2023-01-29T13:09:03;2.20;99.90
10472;DHT22;5283;48.876;8.962;2023-01-29T13:11:55;2.20;99.90
10472;DHT22;5283;48.876;8.962;2023-01-29T13:17:35;2.20;99.90
10472;DHT22;5283;48.876;8.962;2023-01-29T13:20:30;2.00;99.90
10472;DHT22;5283;48.876;8.962;2023-01-29T13:23:05;1.90;99.90
10472;DHT22;5283;48.876;8.962;2023-01-29T13:25:38;2.00;99.90
10472;DHT22;5283;48.876;8.962;2023-01-29T13:28:05;1.90;99.90
10472;DHT22;5283;48.876;8.962;2023-01-29T13:30:33;2.20;99.90
10472;DHT22;5283;48.876;8.962;2023-01-29T13:33:04;2.20;99.90
10472;DHT22;5283;48.876;8.962;2023-01-29T13:35:36;2.20;99.90
10472;DHT22;5283;48.876;8.962;2023-01-29T13:38:04;2.20;99.90
10472;DHT22;5283;48.876;8.962;2023-01-29T13:40:32;2.00;99.90
10472;DHT22;5283;48.876;8.962;2023-01-29T13:43:01;2.00;99.90
10472;DHT22;5283;48.876;8.962;2023-01-29T13:45:42;2.00;99.90
10472;DHT22;5283;48.876;8.962;2023-01-29T13:48:26;2.00;99.90
10472;DHT22;5283;48.876;8.962;2023-01-29T13:50:55;2.00;99.90
10472;DHT22;5283;48.876;8.962;2023-01-29T13:59:02;1.90;99.90
10472;DHT22;5283;48.876;8.962;2023-01-29T14:04:27;1.90;99.90
10472;DHT22;5283;48.876;8.962;2023-01-29T14:07:00;2.10;99.90
10472;DHT22;5283;48.876;8.962;2023-01-29T14:12:49;2.30;99.90
10472;DHT22;5283;48.876;8.962;2023-01-29T14:14:57;2.40;99.90
10472;DHT22;5283;48.876;8.962;2023-01-29T14:17:26;2.40;99.90
10472;DHT22;5283;48.876;8.962;2023-01-29T14:20:01;2.50;99.90
10472;DHT22;5283;48.876;8.962;2023-01-29T14:22:29;2.40;99.90
10472;DHT22;5283;48.876;8.962;2023-01-29T14:25:03;2.10;99.90
10472;DHT22;5283;48.876;8.962;2023-01-29T14:27:31;1.90;99.90
10472;DHT22;5283;48.876;8.962;2023-01-29T14:30:02;1.70;99.90
10472;DHT22;5283;48.876;8.962;2023-01-29T14:32:32;1.60;99.90
10472;DHT22;5283;48.876;8.962;2023-01-29T14:35:03;1.40;99.90
10472;DHT22;5283;48.876;8.962;2023-01-29T14:37:38;1.30;99.90
10472;DHT22;5283;48.876;8.962;2023-01-29T14:43:06;1.30;99.90
10472;DHT22;5283;48.876;8.962;2023-01-29T14:45:38;1.40;99.90
10472;DHT22;5283;48.876;8.962;2023-01-29T14:50:42;1.30;99.90
10472;DHT22;5283;48.876;8.962;2023-01-29T14:55:52;0.90;99.90
10472;DHT22;5283;48.876;8.962;2023-01-29T14:58:51;0.80;99.90
10472;DHT22;5283;48.876;8.962;2023-01-29T15:01:22;0.80;99.90
10472;DHT22;5283;48.876;8.962;2023-01-29T15:04:02;0.90;99.90
10472;DHT22;5283;48.876;8.962;2023-01-29T15:06:32;0.90;99.90
10472;DHT22;5283;48.876;8.962;2023-01-29T15:11:50;1.20;99.90
10472;DHT22;5283;48.876;8.962;2023-01-29T15:14:31;1.40;99.90
10472;DHT22;5283;48.876;8.962;2023-01-29T15:17:35;1.60;99.90
10472;DHT22;5283;48.876;8.962;2023-01-29T15:20:26;1.70;99.90
10472;DHT22;5283;48.876;8.962;2023-01-29T15:22:54;1.60;99.90
10472;DHT22;5283;48.876;8.962;2023-01-29T15:25:20;1.40;99.90
10472;DHT22;5283;48.876;8.962;2023-01-29T15:27:48;1.20;99.90
10472;DHT22;5283;48.876;8.962;2023-01-29T15:30:26;0.90;99.90
10472;DHT22;5283;48.876;8.962;2023-01-29T15:32:55;0.80;99.90
10472;DHT22;5283;48.876;8.962;2023-01-29T15:35:33;0.60;99.90
10472;DHT22;5283;48.876;8.962;2023-01-29T15:40:32;0.40;99.90
10472;DHT22;5283;48.876;8.962;2023-01-29T15:42:59;0.40;99.90
10472;DHT22;5283;48.876;8.962;2023-01-29T15:48:00;0.20;99.90
10472;DHT22;5283;48.876;8.962;2023-01-29T15:50:30;0.20;99.90
10472;DHT22;5283;48.876;8.962;2023-01-29T15:52:59;0.10;99.90
10472;DHT22;5283;48.876;8.962;2023-01-29T15:55:29;0.10;99.90
10472;DHT22;5283;48.876;8.962;2023-01-29T15:57:58;-0.10;99.90
10472;DHT22;5283;48.876;8.962;2023-01-29T16:00:26;-0.30;99.90
10472;DHT22;5283;48.876;8.962;2023-01-29T16:02:56;-0.50;99.90
10472;DHT22;5283;48.876;8.962;2023-01-29T16:05:27;-0.70;99.90
10472;DHT22;5283;48.876;8.962;2023-01-29T16:07:55;-0.80;99.90
10472;DHT22;5283;48.876;8.962;2023-01-29T16:10:28;-0.90;99.90
10472;DHT22;5283;48.876;8.962;2023-01-29T16:12:56;-1.20;99.90
10472;DHT22;5283;48.876;8.962;2023-01-29T16:15:32;-1.40;99.90
10472;DHT22;5283;48.876;8.962;2023-01-29T16:18:02;-1.60;99.90
10472;DHT22;5283;48.876;8.962;2023-01-29T16:20:36;-1.80;99.90
10472;DHT22;5283;48.876;8.962;2023-01-29T16:23:04;-1.90;99.90
10472;DHT22;5283;48.876;8.962;2023-01-29T16:25:33;-2.10;99.90
10472;DHT22;5283;48.876;8.962;2023-01-29T16:28:03;-2.20;99.90
10472;DHT22;5283;48.876;8.962;2023-01-29T16:30:30;-2.30;99.90
10472;DHT22;5283;48.876;8.962;2023-01-29T16:33:02;-2.30;99.90
10472;DHT22;5283;48.876;8.962;2023-01-29T16:35:30;-2.40;99.90
10472;DHT22;5283;48.876;8.962;2023-01-29T16:38:03;-2.50;99.90
10472;DHT22;5283;48.876;8.962;2023-01-29T16:40:34;-2.50;99.90
10472;DHT22;5283;48.876;8.962;2023-01-29T16:46:05;-2.40;99.90
10472;DHT22;5283;48.876;8.962;2023-01-29T16:48:41;-2.40;99.90
10472;DHT22;5283;48.876;8.962;2023-01-29T16:56:28;-2.60;99.90
10472;DHT22;5283;48.876;8.962;2023-01-29T16:58:56;-2.60;99.90
10472;DHT22;5283;48.876;8.962;2023-01-29T17:01:25;-2.70;99.90
10472;DHT22;5283;48.876;8.962;2023-01-29T17:04:01;-2.70;99.90
10472;DHT22;5283;48.876;8.962;2023-01-29T17:06:30;-2.80;99.90
10472;DHT22;5283;48.876;8.962;2023-01-29T17:08:58;-2.90;99.90
10472;DHT22;5283;48.876;8.962;2023-01-29T17:14:00;-3.00;99.90
10472;DHT22;5283;48.876;8.962;2023-01-29T17:16:32;-3.00;99.90
10472;DHT22;5283;48.876;8.962;2023-01-29T17:18:59;-3.20;99.90
10472;DHT22;5283;48.876;8.962;2023-01-29T17:21:28;-3.20;99.90
10472;DHT22;5283;48.876;8.962;2023-01-29T17:23:55;-3.30;99.90
10472;DHT22;5283;48.876;8.962;2023-01-29T17:26:22;-3.40;99.90
10472;DHT22;5283;48.876;8.962;2023-01-29T17:28:50;-3.50;99.90
10472;DHT22;5283;48.876;8.962;2023-01-29T17:31:17;-3.60;99.90
10472;DHT22;5283;48.876;8.962;2023-01-29T17:33:44;-3.50;99.90
10472;DHT22;5283;48.876;8.962;2023-01-29T17:36:13;-3.40;99.90
10472;DHT22;5283;48.876;8.962;2023-01-29T17:38:41;-3.40;99.90
10472;DHT22;5283;48.876;8.962;2023-01-29T17:41:18;-3.50;99.90
10472;DHT22;5283;48.876;8.962;2023-01-29T17:43:46;-3.50;99.90
10472;DHT22;5283;48.876;8.962;2023-01-29T17:46:15;-3.70;99.90
10472;DHT22;5283;48.876;8.962;2023-01-29T17:48:42;-3.80;99.90
10472;DHT22;5283;48.876;8.962;2023-01-29T17:51:14;-3.80;99.90
10472;DHT22;5283;48.876;8.962;2023-01-29T17:53:41;-3.80;99.90
10472;DHT22;5283;48.876;8.962;2023-01-29T17:56:22;-3.70;99.90
10472;DHT22;5283;48.876;8.962;2023-01-29T17:58:52;-3.70;99.90
10472;DHT22;5283;48.876;8.962;2023-01-29T18:01:19;-3.60;99.90
10472;DHT22;5283;48.876;8.962;2023-01-29T18:03:46;-3.50;99.90
10472;DHT22;5283;48.876;8.962;2023-01-29T18:06:27;-3.50;99.90
10472;DHT22;5283;48.876;8.962;2023-01-29T18:08:55;-3.60;99.90
10472;DHT22;5283;48.876;8.962;2023-01-29T18:11:22;-3.70;99.90
10472;DHT22;5283;48.876;8.962;2023-01-29T18:13:49;-3.70;99.90
10472;DHT22;5283;48.876;8.962;2023-01-29T18:16:16;-3.80;99.90
10472;DHT22;5283;48.876;8.962;2023-01-29T18:18:48;-3.90;99.90
10472;DHT22;5283;48.876;8.962;2023-01-29T18:21:15;-4.00;99.90
10472;DHT22;5283;48.876;8.962;2023-01-29T18:23:42;-4.00;99.90
10472;DHT22;5283;48.876;8.962;2023-01-29T18:26:14;-4.00;99.90